Saint Louis, Missouri
Traffic Map
Current Weather Conditions
Saint Louis, Missouri
Clear
Clear
22°
Feels Like: 22°
Wind Chill: 22° Ceiling: Unl
Heat Index: 22° Visibility: 10mi
Dew Point: Wind: 8mph
Humidity: 38% Direction: 120° (ESE)
Pressure: 30.16in Gusts: 0mph
Raw Report DataKCPS 192353Z 12007KT 10SM CLR 22/07 A3016 RMK AO2 SLP212 T02170067 10239 20217 58012
Traffic Incident Summary
Active as of:
Severity:
Category:
InformationThere was an issue retrieving the traffic information for this location. Please try a different location or try again shortly.
Advertisements
At Last! Intellicast now available for iPhone and Android